sensor_id;sensor_type;location;lat;lon;timestamp;P1;P2;P0
55076;PMS7003;40971;44.702;11.030;2023-04-30T00:08:11;65.00;52.33;35.00
55076;PMS7003;40971;44.702;11.030;2023-04-30T00:18:14;60.00;49.67;33.00
55076;PMS7003;40971;44.702;11.030;2023-04-30T00:28:16;66.33;55.33;36.00
55076;PMS7003;40971;44.702;11.030;2023-04-30T00:38:18;63.67;53.00;35.00
55076;PMS7003;40971;44.702;11.030;2023-04-30T00:48:20;67.67;56.00;36.00
55076;PMS7003;40971;44.702;11.030;2023-04-30T00:58:21;66.20;55.80;35.20
55076;PMS7003;40971;44.702;11.030;2023-04-30T01:08:26;58.11;50.56;34.67
55076;PMS7003;40971;44.702;11.030;2023-04-30T01:18:32;53.00;47.56;33.00
55076;PMS7003;40971;44.702;11.030;2023-04-30T01:28:44;52.67;48.67;32.33
55076;PMS7003;40971;44.702;11.030;2023-04-30T01:59:22;63.00;53.67;34.33
55076;PMS7003;40971;44.702;11.030;2023-04-30T02:09:26;59.00;51.67;34.00
55076;PMS7003;40971;44.702;11.030;2023-04-30T02:19:28;66.00;56.00;38.33
55076;PMS7003;40971;44.702;11.030;2023-04-30T02:29:31;67.00;56.00;38.00
55076;PMS7003;40971;44.702;11.030;2023-04-30T02:39:33;76.33;63.67;41.33
55076;PMS7003;40971;44.702;11.030;2023-04-30T02:49:39;71.33;59.67;39.67
55076;PMS7003;40971;44.702;11.030;2023-04-30T02:59:42;74.00;63.33;40.67
55076;PMS7003;40971;44.702;11.030;2023-04-30T03:09:47;67.33;56.67;38.00
55076;PMS7003;40971;44.702;11.030;2023-04-30T03:19:49;57.00;51.00;34.00
55076;PMS7003;40971;44.702;11.030;2023-04-30T03:29:54;54.67;48.78;32.33
55076;PMS7003;40971;44.702;11.030;2023-04-30T03:39:56;63.33;52.00;34.33
55076;PMS7003;40971;44.702;11.030;2023-04-30T03:49:58;69.33;59.00;38.67
55076;PMS7003;40971;44.702;11.030;2023-04-30T04:00:01;74.33;63.67;42.00
55076;PMS7003;40971;44.702;11.030;2023-04-30T04:10:09;78.33;63.00;40.33
55076;PMS7003;40971;44.702;11.030;2023-04-30T04:20:12;75.67;62.67;39.67
55076;PMS7003;40971;44.702;11.030;2023-04-30T04:30:15;72.33;59.67;39.67
55076;PMS7003;40971;44.702;11.030;2023-04-30T04:40:17;68.67;57.33;39.00
55076;PMS7003;40971;44.702;11.030;2023-04-30T04:50:22;66.89;55.89;36.33
55076;PMS7003;40971;44.702;11.030;2023-04-30T05:00:25;72.33;59.67;37.00
55076;PMS7003;40971;44.702;11.030;2023-04-30T05:10:28;68.33;56.67;36.67
55076;PMS7003;40971;44.702;11.030;2023-04-30T05:20:31;65.67;54.67;35.00
55076;PMS7003;40971;44.702;11.030;2023-04-30T05:30:34;66.33;54.00;32.67
55076;PMS7003;40971;44.702;11.030;2023-04-30T05:40:36;49.67;45.33;30.33
55076;PMS7003;40971;44.702;11.030;2023-04-30T05:50:40;46.63;43.50;31.75
55076;PMS7003;40971;44.702;11.030;2023-04-30T06:00:43;55.00;47.67;31.00
55076;PMS7003;40971;44.702;11.030;2023-04-30T06:10:46;48.33;43.33;29.00
55076;PMS7003;40971;44.702;11.030;2023-04-30T06:20:47;46.00;43.00;27.00
55076;PMS7003;40971;44.702;11.030;2023-04-30T06:30:48;54.80;46.20;30.00
55076;PMS7003;40971;44.702;11.030;2023-04-30T06:40:52;49.33;43.33;29.00
55076;PMS7003;40971;44.702;11.030;2023-04-30T06:50:56;51.88;45.13;27.88
55076;PMS7003;40971;44.702;11.030;2023-04-30T07:01:01;52.33;43.67;28.78
55076;PMS7003;40971;44.702;11.030;2023-04-30T07:11:06;52.78;43.44;27.89
55076;PMS7003;40971;44.702;11.030;2023-04-30T07:21:08;52.67;45.00;28.00
55076;PMS7003;40971;44.702;11.030;2023-04-30T07:31:13;46.67;41.22;28.00
55076;PMS7003;40971;44.702;11.030;2023-04-30T07:41:15;38.33;36.67;24.33
55076;PMS7003;40971;44.702;11.030;2023-04-30T07:51:17;40.33;38.33;26.67
55076;PMS7003;40971;44.702;11.030;2023-04-30T08:01:20;36.00;36.00;25.00
55076;PMS7003;40971;44.702;11.030;2023-04-30T08:11:24;40.25;37.63;25.00
55076;PMS7003;40971;44.702;11.030;2023-04-30T08:21:28;40.38;37.50;25.75
55076;PMS7003;40971;44.702;11.030;2023-04-30T08:31:29;40.00;36.80;26.40
55076;PMS7003;40971;44.702;11.030;2023-04-30T08:41:31;37.33;35.67;24.67
55076;PMS7003;40971;44.702;11.030;2023-04-30T08:51:35;37.75;36.25;25.75
55076;PMS7003;40971;44.702;11.030;2023-04-30T09:01:38;38.75;36.00;24.00
55076;PMS7003;40971;44.702;11.030;2023-04-30T09:11:41;37.25;34.75;23.50
55076;PMS7003;40971;44.702;11.030;2023-04-30T09:21:44;31.67;28.67;21.00
55076;PMS7003;40971;44.702;11.030;2023-04-30T09:31:47;34.67;34.33;23.00
55076;PMS7003;40971;44.702;11.030;2023-04-30T09:41:49;28.00;26.67;19.67
55076;PMS7003;40971;44.702;11.030;2023-04-30T09:51:56;31.00;30.25;20.25
55076;PMS7003;40971;44.702;11.030;2023-04-30T10:02:03;26.67;26.33;18.33
55076;PMS7003;40971;44.702;11.030;2023-04-30T10:12:13;25.33;22.67;18.33
55076;PMS7003;40971;44.702;11.030;2023-04-30T10:22:16;26.00;25.67;18.00
55076;PMS7003;40971;44.702;11.030;2023-04-30T10:32:19;27.00;27.00;18.00
55076;PMS7003;40971;44.702;11.030;2023-04-30T10:42:25;23.67;22.00;16.00
55076;PMS7003;40971;44.702;11.030;2023-04-30T10:52:28;23.33;22.33;17.00
55076;PMS7003;40971;44.702;11.030;2023-04-30T11:02:38;23.67;22.33;16.33
55076;PMS7003;40971;44.702;11.030;2023-04-30T11:12:49;24.33;21.67;16.00
55076;PMS7003;40971;44.702;11.030;2023-04-30T11:23:11;24.33;23.00;17.00
55076;PMS7003;40971;44.702;11.030;2023-04-30T11:33:18;23.00;23.00;18.33
55076;PMS7003;40971;44.702;11.030;2023-04-30T11:53:27;21.00;20.50;16.50
55076;PMS7003;40971;44.702;11.030;2023-04-30T12:03:39;25.67;25.67;19.00
55076;PMS7003;40971;44.702;11.030;2023-04-30T12:13:53;25.50;23.50;17.00
55076;PMS7003;40971;44.702;11.030;2023-04-30T12:23:59;22.67;22.00;17.33
55076;PMS7003;40971;44.702;11.030;2023-04-30T12:34:05;24.00;24.00;18.00
55076;PMS7003;40971;44.702;11.030;2023-04-30T12:44:28;22.33;21.67;16.00
55076;PMS7003;40971;44.702;11.030;2023-04-30T12:54:30;18.80;17.80;15.60
55076;PMS7003;40971;44.702;11.030;2023-04-30T13:04:35;14.40;14.20;10.80
55076;PMS7003;40971;44.702;11.030;2023-04-30T13:14:37;13.33;13.33;12.00
55076;PMS7003;40971;44.702;11.030;2023-04-30T13:24:38;11.00;9.67;8.00
55076;PMS7003;40971;44.702;11.030;2023-04-30T13:34:42;11.14;11.14;10.00
55076;PMS7003;40971;44.702;11.030;2023-04-30T13:44:45;12.00;12.00;10.00
55076;PMS7003;40971;44.702;11.030;2023-04-30T13:54:49;13.60;13.40;10.40
55076;PMS7003;40971;44.702;11.030;2023-04-30T14:04:52;13.33;13.33;11.33
55076;PMS7003;40971;44.702;11.030;2023-04-30T14:14:55;13.14;13.14;10.71
55076;PMS7003;40971;44.702;11.030;2023-04-30T14:24:57;9.80;9.80;7.80
55076;PMS7003;40971;44.702;11.030;2023-04-30T14:34:59;10.50;9.50;7.00
55076;PMS7003;40971;44.702;11.030;2023-04-30T14:45:02;12.17;12.17;10.50
55076;PMS7003;40971;44.702;11.030;2023-04-30T14:55:04;10.00;10.00;8.00
55076;PMS7003;40971;44.702;11.030;2023-04-30T15:05:05;9.00;9.00;8.00
55076;PMS7003;40971;44.702;11.030;2023-04-30T15:15:08;15.00;12.67;9.67
55076;PMS7003;40971;44.702;11.030;2023-04-30T15:25:10;9.00;9.00;7.00
55076;PMS7003;40971;44.702;11.030;2023-04-30T15:35:13;9.00;9.00;7.83
55076;PMS7003;40971;44.702;11.030;2023-04-30T15:45:15;9.60;8.80;7.40
55076;PMS7003;40971;44.702;11.030;2023-04-30T15:55:18;10.50;9.67;8.00
55076;PMS7003;40971;44.702;11.030;2023-04-30T16:05:21;8.00;8.00;7.00
55076;PMS7003;40971;44.702;11.030;2023-04-30T16:15:24;10.00;9.67;7.50
55076;PMS7003;40971;44.702;11.030;2023-04-30T16:25:27;8.50;8.50;7.00
55076;PMS7003;40971;44.702;11.030;2023-04-30T16:35:31;10.71;10.71;8.00
55076;PMS7003;40971;44.702;11.030;2023-04-30T16:45:34;8.50;8.50;7.17
55076;PMS7003;40971;44.702;11.030;2023-04-30T16:55:38;11.43;10.57;9.29
55076;PMS7003;40971;44.702;11.030;2023-04-30T17:05:40;12.00;10.67;9.00
55076;PMS7003;40971;44.702;11.030;2023-04-30T17:15:42;12.33;12.33;9.00
55076;PMS7003;40971;44.702;11.030;2023-04-30T17:25:44;12.17;12.17;8.83
55076;PMS7003;40971;44.702;11.030;2023-04-30T17:35:45;12.00;12.00;8.67
55076;PMS7003;40971;44.702;11.030;2023-04-30T17:45:47;13.67;12.67;9.67
55076;PMS7003;40971;44.702;11.030;2023-04-30T17:55:51;16.20;15.00;11.40
55076;PMS7003;40971;44.702;11.030;2023-04-30T18:05:53;13.67;13.33;11.00
55076;PMS7003;40971;44.702;11.030;2023-04-30T18:15:57;11.71;11.71;10.57
55076;PMS7003;40971;44.702;11.030;2023-04-30T18:25:58;18.00;18.00;14.67
55076;PMS7003;40971;44.702;11.030;2023-04-30T18:36:01;11.33;11.33;8.67
55076;PMS7003;40971;44.702;11.030;2023-04-30T18:46:08;12.43;12.43;10.57
55076;PMS7003;40971;44.702;11.030;2023-04-30T18:56:11;20.57;16.14;11.86
55076;PMS7003;40971;44.702;11.030;2023-04-30T19:06:12;20.50;20.00;15.00
55076;PMS7003;40971;44.702;11.030;2023-04-30T19:16:15;16.71;16.43;12.43
55076;PMS7003;40971;44.702;11.030;2023-04-30T19:26:18;13.60;13.60;10.20
55076;PMS7003;40971;44.702;11.030;2023-04-30T19:36:23;15.57;14.57;10.86
55076;PMS7003;40971;44.702;11.030;2023-04-30T19:46:28;15.29;14.43;11.57
55076;PMS7003;40971;44.702;11.030;2023-04-30T19:56:49;12.71;12.71;10.29
55076;PMS7003;40971;44.702;11.030;2023-04-30T20:06:54;24.80;23.20;15.00
55076;PMS7003;40971;44.702;11.030;2023-04-30T20:16:58;20.20;19.20;12.60
55076;PMS7003;40971;44.702;11.030;2023-04-30T20:27:02;17.57;16.86;13.57
55076;PMS7003;40971;44.702;11.030;2023-04-30T20:47:26;27.00;27.00;19.00
55076;PMS7003;40971;44.702;11.030;2023-04-30T20:57:27;24.50;24.50;18.00
55076;PMS7003;40971;44.702;11.030;2023-04-30T21:07:29;23.67;21.67;16.67
55076;PMS7003;40971;44.702;11.030;2023-04-30T21:17:33;24.80;20.60;15.60
55076;PMS7003;40971;44.702;11.030;2023-04-30T21:27:37;26.13;25.00;18.75
55076;PMS7003;40971;44.702;11.030;2023-04-30T21:37:38;22.00;22.00;17.33
55076;PMS7003;40971;44.702;11.030;2023-04-30T21:47:41;26.40;25.60;20.80
55076;PMS7003;40971;44.702;11.030;2023-04-30T21:57:44;25.20;22.00;18.20
55076;PMS7003;40971;44.702;11.030;2023-04-30T22:07:46;23.00;23.00;17.00
55076;PMS7003;40971;44.702;11.030;2023-04-30T22:17:51;25.88;24.88;17.50
55076;PMS7003;40971;44.702;11.030;2023-04-30T22:28:11;21.20;21.20;17.20
55076;PMS7003;40971;44.702;11.030;2023-04-30T22:38:13;26.80;23.60;17.80
55076;PMS7003;40971;44.702;11.030;2023-04-30T22:48:15;23.33;22.00;16.33
55076;PMS7003;40971;44.702;11.030;2023-04-30T22:58:17;21.00;20.20;14.80
55076;PMS7003;40971;44.702;11.030;2023-04-30T23:08:37;20.80;20.00;15.20
55076;PMS7003;40971;44.702;11.030;2023-04-30T23:18:57;27.50;26.50;20.50
55076;PMS7003;40971;44.702;11.030;2023-04-30T23:39:38;24.40;22.00;17.00
55076;PMS7003;40971;44.702;11.030;2023-04-30T23:49:40;30.50;29.25;19.50
